Time;durP1;ratioP1;P1;durP2;ratioP2;P2;SDS_P1;SDS_P2;PMS_P1;PMS_P2;Temp;Humidity;BMP_temperature;BMP_pressure;BME280_temperature;BME280_humidity;BME280_pressure;Samples;Min_cycle;Max_cycle;Signal;HPM_P1;HPM_P2
2021/01/01 00:03:00;;;;;;;92.28;78.37;;;19.80;48.50;;;;;;4803404;54;21462;-20
2021/01/01 00:08:01;;;;;;;89.82;75.82;;;19.80;48.40;;;;;;4795064;58;21501;-24
2021/01/01 00:13:02;;;;;;;93.85;78.25;;;19.80;48.40;;;;;;4803190;54;21015;-21
2021/01/01 00:18:03;;;;;;;90.62;75.53;;;19.80;48.50;;;;;;4818501;54;21505;-28
2021/01/01 00:23:04;;;;;;;90.15;76.05;;;19.80;48.40;;;;;;4796216;58;21086;-23
2021/01/01 00:28:05;;;;;;;90.57;77.20;;;19.80;48.30;;;;;;4797494;54;21565;-28
2021/01/01 00:33:05;;;;;;;88.68;76.85;;;19.80;48.30;;;;;;4825125;54;21019;-27
2021/01/01 00:38:07;;;;;;;91.72;76.03;;;19.80;48.20;;;;;;4800164;54;21465;-26
2021/01/01 00:43:07;;;;;;;87.85;73.47;;;19.80;48.30;;;;;;4880585;54;21099;-26
2021/01/01 00:48:09;;;;;;;88.55;74.70;;;19.80;48.20;;;;;;4802691;54;21521;-25
2021/01/01 00:53:10;;;;;;;89.47;73.93;;;19.80;48.40;;;;;;4867151;54;21011;-25
2021/01/01 00:58:11;;;;;;;89.50;73.70;;;19.80;48.20;;;;;;4805769;54;21473;-21
2021/01/01 01:03:11;;;;;;;86.70;71.68;;;19.80;48.30;;;;;;4794723;58;21015;-31
2021/01/01 01:08:12;;;;;;;85.22;71.37;;;19.80;48.30;;;;;;4833628;54;21505;-26
2021/01/01 01:13:13;;;;;;;87.37;74.12;;;19.80;48.10;;;;;;4839926;54;21059;-29
2021/01/01 01:18:14;;;;;;;87.05;71.95;;;19.80;48.10;;;;;;4810503;54;21006;-30
2021/01/01 01:23:15;;;;;;;88.97;73.12;;;19.80;48.00;;;;;;4802413;54;21509;-32
2021/01/01 01:28:16;;;;;;;87.55;73.93;;;19.80;48.10;;;;;;4795115;58;21473;-28
2021/01/01 01:33:17;;;;;;;90.68;72.68;;;19.80;48.00;;;;;;4803009;54;21528;-22
2021/01/01 01:38:18;;;;;;;86.05;70.62;;;19.80;47.90;;;;;;4817869;54;21088;-27
2021/01/01 01:43:22;;;;;;;82.60;68.55;;;19.80;48.00;;;;;;4800360;54;21134;-24
2021/01/01 01:48:29;;;;;;;88.60;72.43;;;19.80;48.00;;;;;;4799718;54;21118;-25
2021/01/01 01:53:32;;;;;;;;;;;19.80;47.90;;;;;;4818153;54;21074;-27
2021/01/01 01:58:34;;;;;;;87.78;70.95;;;19.80;48.00;;;;;;4829074;54;20154;-22
2021/01/01 02:03:35;;;;;;;84.97;71.05;;;19.80;47.90;;;;;;4810324;54;20999;-26
2021/01/01 02:08:36;;;;;;;85.00;69.57;;;19.80;47.90;;;;;;4811128;54;21114;-27
2021/01/01 02:13:38;;;;;;;84.28;69.12;;;19.80;47.90;;;;;;4805948;54;21086;-30
2021/01/01 02:18:41;;;;;;;84.10;68.95;;;19.80;47.80;;;;;;4795144;58;21070;-32
2021/01/01 02:23:42;;;;;;;82.85;68.00;;;19.80;47.90;;;;;;4834120;54;20991;-28
2021/01/01 02:28:46;;;;;;;80.72;67.57;;;19.80;47.80;;;;;;4801572;54;21536;-23
2021/01/01 02:33:47;;;;;;;83.53;69.40;;;19.80;47.80;;;;;;4816743;54;21003;-31
2021/01/01 02:38:48;;;;;;;86.47;68.20;;;19.80;47.70;;;;;;4796551;54;21075;-20
2021/01/01 02:43:50;;;;;;;84.57;69.78;;;19.80;47.80;;;;;;4796693;54;21474;-23
2021/01/01 02:48:51;;;;;;;82.32;67.28;;;19.80;47.70;;;;;;4806161;54;21035;-28
2021/01/01 02:53:51;;;;;;;79.62;65.40;;;19.80;47.70;;;;;;4845298;54;21003;-26
2021/01/01 02:58:52;;;;;;;77.70;63.58;;;19.80;47.60;;;;;;4809173;54;21003;-26
2021/01/01 03:03:53;;;;;;;81.18;65.28;;;19.80;47.60;;;;;;4827657;54;21051;-27
2021/01/01 03:08:54;;;;;;;77.53;64.53;;;19.80;47.60;;;;;;4820477;54;21585;-28
2021/01/01 03:13:55;;;;;;;77.47;64.00;;;19.80;47.50;;;;;;4794268;58;21059;-26
2021/01/01 03:18:56;;;;;;;80.82;66.32;;;19.80;48.50;;;;;;4804079;54;20999;-30
2021/01/01 03:23:57;;;;;;;78.50;63.03;;;19.80;47.60;;;;;;4859361;54;21465;-21
2021/01/01 03:28:57;;;;;;;78.05;63.92;;;19.80;47.50;;;;;;4824199;54;20999;-23
2021/01/01 03:33:58;;;;;;;77.35;63.45;;;19.80;47.50;;;;;;4830542;54;21011;-26
2021/01/01 03:38:59;;;;;;;76.60;63.05;;;19.80;48.20;;;;;;4804933;54;21026;-24
2021/01/01 03:44:00;;;;;;;75.53;61.53;;;19.80;47.50;;;;;;4806193;54;21047;-27
2021/01/01 03:49:01;;;;;;;72.93;59.63;;;19.80;47.40;;;;;;4806927;54;21011;-30
2021/01/01 03:54:02;;;;;;;74.90;62.25;;;19.80;47.40;;;;;;4861013;54;20995;-29
2021/01/01 03:59:03;;;;;;;75.37;62.58;;;19.80;47.50;;;;;;4832991;54;21041;-26
2021/01/01 04:04:04;;;;;;;72.62;59.53;;;19.80;47.80;;;;;;4819173;54;21469;-28
2021/01/01 04:09:06;;;;;;;69.32;58.15;;;19.80;47.30;;;;;;4794724;58;21009;-30
2021/01/01 04:14:07;;;;;;;71.28;59.88;;;19.80;47.30;;;;;;4854606;54;20981;-31
2021/01/01 04:19:08;;;;;;;74.37;60.55;;;19.80;47.30;;;;;;4805973;54;21023;-30
2021/01/01 04:24:09;;;;;;;72.60;59.15;;;19.80;47.20;;;;;;4846773;54;21004;-29
2021/01/01 04:29:10;;;;;;;70.68;58.28;;;19.80;47.20;;;;;;4799486;54;21549;-32
2021/01/01 04:34:11;;;;;;;69.30;57.75;;;19.80;47.30;;;;;;4804863;54;21454;-32
2021/01/01 04:39:12;;;;;;;69.47;57.85;;;19.80;47.20;;;;;;4826821;54;21067;-26
2021/01/01 04:44:16;;;;;;;71.05;57.90;;;19.80;47.10;;;;;;4801351;54;21457;-30
2021/01/01 04:49:17;;;;;;;70.85;57.38;;;19.80;47.10;;;;;;4817926;54;20991;-26
2021/01/01 04:54:23;;;;;;;69.00;55.58;;;19.70;47.10;;;;;;4875695;54;21497;-24
2021/01/01 04:59:27;;;;;;;68.85;56.33;;;19.70;47.00;;;;;;4805319;54;21002;-29
2021/01/01 05:04:28;;;;;;;67.72;55.25;;;19.70;47.10;;;;;;4798682;54;21117;-21
2021/01/01 05:09:31;;;;;;;63.45;53.30;;;19.70;47.00;;;;;;4801972;54;21530;-23
2021/01/01 05:14:32;;;;;;;63.20;53.72;;;19.70;47.00;;;;;;4811599;54;21038;-25
2021/01/01 05:19:41;;;;;;;65.78;54.15;;;19.80;47.00;;;;;;4826639;54;21027;-25
2021/01/01 05:24:43;;;;;;;64.53;53.35;;;19.80;47.00;;;;;;4854691;54;20979;-24
2021/01/01 05:29:52;;;;;;;60.60;51.10;;;19.80;47.00;;;;;;4823985;54;20983;-24
2021/01/01 05:34:54;;;;;;;63.42;53.25;;;19.70;46.80;;;;;;4815354;54;21205;-23
2021/01/01 05:40:09;;;;;;;61.35;50.85;;;19.70;46.90;;;;;;4811500;54;21043;-22
2021/01/01 05:45:15;;;;;;;63.10;52.10;;;19.70;46.70;;;;;;4836162;54;21577;-26
2021/01/01 05:50:16;;;;;;;60.58;51.20;;;19.80;46.80;;;;;;4795117;55;21586;-30
2021/01/01 05:55:17;;;;;;;62.28;50.92;;;19.70;46.70;;;;;;4814099;54;21055;-27
2021/01/01 06:00:20;;;;;;;59.50;49.50;;;19.80;46.80;;;;;;4821585;54;21419;-28
2021/01/01 06:05:21;;;;;;;62.80;52.15;;;19.70;46.70;;;;;;4835152;54;20987;-21
2021/01/01 06:10:23;;;;;;;60.22;50.70;;;19.70;46.70;;;;;;4828094;54;21011;-25
2021/01/01 06:15:34;;;;;;;59.80;50.00;;;19.70;46.60;;;;;;4840711;54;21051;-26
2021/01/01 06:20:39;;;;;;;57.25;49.38;;;19.70;46.50;;;;;;4813357;54;21102;-26
2021/01/01 06:25:40;;;;;;;60.20;49.25;;;19.70;46.60;;;;;;4794849;56;20995;-25
2021/01/01 06:30:41;;;;;;;58.67;48.80;;;19.70;46.60;;;;;;4869043;54;21019;-27
2021/01/01 06:35:43;;;;;;;58.67;49.28;;;19.80;46.60;;;;;;4840882;54;21551;-30
2021/01/01 06:40:44;;;;;;;55.90;48.53;;;19.70;46.40;;;;;;4794970;58;21514;-19
2021/01/01 06:45:46;;;;;;;57.90;47.28;;;19.70;46.50;;;;;;4797997;54;20995;-27
2021/01/01 06:50:52;;;;;;;57.80;47.83;;;19.70;46.50;;;;;;4828196;54;21011;-27
2021/01/01 06:56:07;;;;;;;54.80;45.78;;;19.70;46.60;;;;;;4812293;54;21063;-28
2021/01/01 07:01:17;;;;;;;55.17;45.38;;;19.70;46.40;;;;;;4811374;54;21071;-30
2021/01/01 07:06:41;;;;;;;52.58;44.05;;;19.70;46.40;;;;;;4808084;54;21047;-27
2021/01/01 07:11:42;;;;;;;55.47;46.25;;;19.70;46.40;;;;;;4810491;54;21067;-28
2021/01/01 07:16:50;;;;;;;57.35;46.03;;;19.70;46.30;;;;;;4794543;58;21039;-24
2021/01/01 07:21:51;;;;;;;53.00;44.97;;;19.70;46.90;;;;;;4841676;54;22102;-24
2021/01/01 07:26:52;;;;;;;52.55;44.55;;;19.70;46.20;;;;;;4834107;54;21493;-27
2021/01/01 07:31:55;;;;;;;52.25;43.90;;;19.70;46.10;;;;;;4829596;54;21374;-23
2021/01/01 07:37:01;;;;;;;54.65;44.70;;;19.70;46.30;;;;;;4837679;54;21569;-27
2021/01/01 07:42:03;;;;;;;54.88;44.30;;;19.70;46.30;;;;;;4820372;54;21011;-25
2021/01/01 07:47:10;;;;;;;53.70;45.22;;;19.70;46.10;;;;;;4807005;54;20979;-29
2021/01/01 07:52:15;;;;;;;51.63;43.78;;;19.70;46.10;;;;;;4816852;54;21027;-24
2021/01/01 07:57:20;;;;;;;51.33;42.58;;;19.70;46.00;;;;;;4821737;54;21469;-29
2021/01/01 08:02:22;;;;;;;51.37;41.85;;;19.70;46.10;;;;;;4846946;54;21557;-28
2021/01/01 08:07:23;;;;;;;51.92;42.72;;;19.70;46.10;;;;;;4794841;58;21146;-25
2021/01/01 08:12:24;;;;;;;50.60;41.15;;;19.70;46.00;;;;;;4794608;54;21031;-24
2021/01/01 08:17:31;;;;;;;50.53;41.53;;;19.70;46.10;;;;;;4802642;54;21046;-30
2021/01/01 08:22:36;;;;;;;50.67;42.07;;;19.70;46.10;;;;;;4821726;54;21415;-25
2021/01/01 08:27:37;;;;;;;52.58;43.00;;;19.70;46.00;;;;;;4828455;54;21351;-20
2021/01/01 08:32:40;;;;;;;51.72;43.13;;;19.70;46.10;;;;;;4839024;54;21261;-26
2021/01/01 08:37:41;;;;;;;50.72;41.65;;;19.70;45.90;;;;;;4809849;54;20988;-26
2021/01/01 08:42:43;;;;;;;49.53;41.13;;;19.70;45.90;;;;;;4829090;54;21497;-28
2021/01/01 08:47:48;;;;;;;51.22;41.10;;;19.70;45.90;;;;;;4818184;54;20990;-22
2021/01/01 08:52:56;;;;;;;52.72;42.42;;;19.70;45.90;;;;;;4834630;54;21569;-23
2021/01/01 08:58:20;;;;;;;50.28;40.60;;;19.70;46.00;;;;;;4841324;54;20987;-27
2021/01/01 09:03:22;;;;;;;49.47;41.58;;;19.70;45.90;;;;;;4832940;54;21494;-33
2021/01/01 09:08:24;;;;;;;48.22;40.65;;;19.70;46.00;;;;;;4840047;54;21087;-19
2021/01/01 09:13:26;;;;;;;48.53;40.70;;;19.70;45.90;;;;;;4795020;54;21039;-27
2021/01/01 09:18:28;;;;;;;50.30;40.95;;;19.70;45.90;;;;;;4880304;54;21055;-28
2021/01/01 09:23:29;;;;;;;52.30;42.30;;;19.70;45.90;;;;;;4799522;54;21015;-26
2021/01/01 09:28:30;;;;;;;52.15;42.40;;;19.70;45.90;;;;;;4800503;54;21540;-23
2021/01/01 09:33:31;;;;;;;51.95;41.83;;;19.80;45.90;;;;;;4794846;58;20991;-30
2021/01/01 09:38:32;;;;;;;51.60;42.30;;;19.70;45.90;;;;;;4800286;54;20959;-25
2021/01/01 09:43:33;;;;;;;54.83;43.17;;;19.70;46.10;;;;;;4794974;58;20988;-29
2021/01/01 09:48:34;;;;;;;48.58;40.83;;;19.70;45.90;;;;;;4823928;54;21003;-28
2021/01/01 09:53:35;;;;;;;53.10;43.40;;;19.70;46.00;;;;;;4794374;58;21018;-26
2021/01/01 09:58:36;;;;;;;56.15;44.65;;;19.70;45.90;;;;;;4837046;54;21066;-30
2021/01/01 10:03:37;;;;;;;55.00;45.30;;;19.80;45.90;;;;;;4800753;54;20999;-30
2021/01/01 10:08:38;;;;;;;54.80;45.38;;;19.70;45.90;;;;;;4796470;54;21465;-30
2021/01/01 10:13:39;;;;;;;57.70;46.15;;;19.80;46.00;;;;;;4816135;54;21015;-25
2021/01/01 10:18:40;;;;;;;55.47;46.08;;;19.80;46.00;;;;;;4795581;58;20999;-27
2021/01/01 10:23:41;;;;;;;55.17;46.85;;;19.80;46.20;;;;;;4850459;54;21489;-19
2021/01/01 10:28:43;;;;;;;54.55;44.45;;;19.80;46.10;;;;;;4816842;54;21043;-29
2021/01/01 10:33:44;;;;;;;56.17;46.30;;;19.80;46.20;;;;;;4800717;54;21576;-28
2021/01/01 10:38:45;;;;;;;58.40;47.78;;;19.80;46.00;;;;;;4821868;54;20995;-27
2021/01/01 10:43:46;;;;;;;60.35;48.33;;;19.80;46.10;;;;;;4826053;54;21485;-30
2021/01/01 10:48:47;;;;;;;63.50;49.75;;;19.80;46.10;;;;;;4801392;54;21003;-27
2021/01/01 10:53:48;;;;;;;61.00;49.67;;;19.80;46.10;;;;;;4798084;54;21027;-20
2021/01/01 10:58:49;;;;;;;61.65;49.90;;;19.80;46.20;;;;;;4816555;54;20991;-29
2021/01/01 11:03:51;;;;;;;63.45;51.40;;;19.80;46.30;;;;;;4827758;54;21047;-25
2021/01/01 11:08:52;;;;;;;66.30;53.22;;;19.80;46.10;;;;;;4798660;54;21027;-29
2021/01/01 11:14:21;;;;;;;66.22;53.53;;;19.80;46.30;;;;;;4819530;54;22298;-23
2021/01/01 12:24:21;;;;;;;72.35;58.63;;;19.80;46.30;;;;;;4795245;54;21015;-25
2021/01/01 12:29:25;;;;;;;75.28;59.90;;;19.80;46.40;;;;;;4800599;54;21545;-22
2021/01/01 12:34:27;;;;;;;75.05;61.17;;;19.80;46.60;;;;;;4847666;54;20999;-27
2021/01/01 12:39:28;;;;;;;78.05;63.03;;;19.80;46.60;;;;;;4822656;54;21094;-23
2021/01/01 12:44:30;;;;;;;77.45;62.75;;;19.80;46.50;;;;;;4795473;54;21077;-24
2021/01/01 12:49:32;;;;;;;75.78;60.53;;;19.80;46.40;;;;;;4820644;54;21552;-26
2021/01/01 12:54:35;;;;;;;80.25;64.72;;;19.80;46.30;;;;;;4797958;54;21024;-24
2021/01/01 12:59:36;;;;;;;78.25;61.63;;;19.80;46.50;;;;;;4812588;54;21075;-32
2021/01/01 13:04:37;;;;;;;81.93;65.97;;;19.80;46.60;;;;;;4794992;55;21063;-26
2021/01/01 13:09:38;;;;;;;78.85;63.80;;;19.80;46.40;;;;;;4796647;54;21498;-22
2021/01/01 13:14:38;;;;;;;78.95;64.87;;;19.80;46.70;;;;;;4816145;54;21000;-24
2021/01/01 13:19:39;;;;;;;78.95;64.50;;;19.80;46.60;;;;;;4803740;54;21003;-22
2021/01/01 13:24:40;;;;;;;82.37;67.87;;;19.80;46.80;;;;;;4823608;54;21098;-21
2021/01/01 13:29:41;;;;;;;81.18;67.00;;;19.80;46.50;;;;;;4794748;58;21118;-24
2021/01/01 13:34:42;;;;;;;80.10;65.72;;;19.80;46.60;;;;;;4805852;54;20995;-24
2021/01/01 13:39:43;;;;;;;78.72;64.93;;;19.80;46.70;;;;;;4818837;54;21517;-22
2021/01/01 13:44:44;;;;;;;82.18;67.55;;;19.80;46.80;;;;;;4795524;55;21039;-22
2021/01/01 13:49:45;;;;;;;83.03;67.28;;;19.80;46.60;;;;;;4817218;54;21462;-24
2021/01/01 13:54:48;;;;;;;82.00;69.03;;;19.80;47.00;;;;;;4823800;54;21014;-21
2021/01/01 13:59:49;;;;;;;85.82;69.07;;;19.80;46.90;;;;;;4794914;58;21011;-27
2021/01/01 14:04:51;;;;;;;81.35;66.82;;;19.80;46.60;;;;;;4795525;58;21034;-23
2021/01/01 14:09:51;;;;;;;86.43;70.70;;;19.80;46.90;;;;;;4819791;54;21381;-28
2021/01/01 14:14:52;;;;;;;88.40;73.97;;;19.80;46.80;;;;;;4805688;54;21004;-29
2021/01/01 14:19:53;;;;;;;87.07;72.43;;;19.80;46.60;;;;;;4816342;54;21099;-28
2021/01/01 14:24:54;;;;;;;90.32;73.18;;;19.80;46.80;;;;;;4795712;54;21031;-27
2021/01/01 14:29:55;;;;;;;83.00;70.60;;;19.80;46.10;;;;;;4799652;54;20991;-25
2021/01/01 14:34:56;;;;;;;89.57;74.07;;;19.80;46.80;;;;;;4794743;54;21015;-26
2021/01/01 14:39:56;;;;;;;92.32;76.22;;;19.80;46.70;;;;;;4795550;58;21007;-24
2021/01/01 14:44:57;;;;;;;93.87;76.45;;;19.80;46.50;;;;;;4818646;54;21008;-20
2021/01/01 14:50:01;;;;;;;95.65;78.15;;;19.80;46.80;;;;;;4832079;54;21087;-24
2021/01/01 14:55:02;;;;;;;93.43;77.82;;;19.80;46.70;;;;;;4819594;54;21593;-21
2021/01/01 15:00:10;;;;;;;94.65;75.75;;;19.80;46.60;;;;;;4820673;54;21015;-23
2021/01/01 15:05:12;;;;;;;96.25;79.35;;;19.80;46.70;;;;;;4838419;54;21047;-25
2021/01/01 15:10:13;;;;;;;96.45;77.32;;;19.80;46.60;;;;;;4807419;54;21015;-24
2021/01/01 15:15:14;;;;;;;97.12;79.05;;;19.80;46.60;;;;;;4796862;54;21670;-25
2021/01/01 15:20:15;;;;;;;97.88;78.55;;;19.80;46.70;;;;;;4814415;54;21019;-28
2021/01/01 15:25:16;;;;;;;97.68;80.62;;;19.80;46.60;;;;;;4803569;54;21003;-31
2021/01/01 15:30:18;;;;;;;99.85;81.12;;;19.80;46.70;;;;;;4799435;54;21007;-33
2021/01/01 15:35:18;;;;;;;102.87;83.10;;;19.80;46.50;;;;;;4856833;54;21067;-30
2021/01/01 15:40:19;;;;;;;102.95;85.85;;;19.80;46.60;;;;;;4801977;54;21544;-20
2021/01/01 15:45:20;;;;;;;106.93;85.70;;;19.80;46.50;;;;;;4829533;54;21478;-29
2021/01/01 15:50:21;;;;;;;104.00;85.35;;;19.80;46.60;;;;;;4802865;54;21063;-21
2021/01/01 15:55:22;;;;;;;110.75;89.75;;;19.80;46.50;;;;;;4877354;54;21019;-26
2021/01/01 16:00:24;;;;;;;108.93;86.90;;;19.80;46.40;;;;;;4874894;54;21062;-27
2021/01/01 16:05:26;;;;;;;107.75;88.05;;;19.80;46.60;;;;;;4843928;54;20999;-29
2021/01/01 16:10:27;;;;;;;110.28;87.43;;;19.80;46.60;;;;;;4846982;54;21121;-30
2021/01/01 16:15:27;;;;;;;110.18;89.68;;;19.80;46.50;;;;;;4821892;54;21954;-28
2021/01/01 16:20:29;;;;;;;107.15;88.72;;;19.80;46.50;;;;;;4832568;54;21058;-27
2021/01/01 16:25:30;;;;;;;107.72;88.30;;;19.80;46.60;;;;;;4795581;58;21482;-30
2021/01/01 16:30:31;;;;;;;113.22;92.22;;;19.80;46.50;;;;;;4802474;54;21102;-25
2021/01/01 16:35:32;;;;;;;109.90;88.55;;;19.80;46.50;;;;;;4854443;54;21067;-26
2021/01/01 16:40:32;;;;;;;110.93;89.60;;;19.80;46.50;;;;;;4795759;58;21545;-30
2021/01/01 16:45:36;;;;;;;115.47;91.05;;;19.80;46.50;;;;;;4797099;54;21067;-30
2021/01/01 16:50:37;;;;;;;110.93;90.18;;;19.80;46.60;;;;;;4809059;54;21006;-28
2021/01/01 16:55:38;;;;;;;113.65;92.53;;;19.80;46.50;;;;;;4802854;54;21015;-25
2021/01/01 17:00:38;;;;;;;111.40;90.55;;;19.80;46.50;;;;;;4827609;54;21004;-30
2021/01/01 17:05:39;;;;;;;114.28;93.70;;;19.80;46.40;;;;;;4811442;54;21518;-26
2021/01/01 17:10:42;;;;;;;114.88;93.85;;;19.80;46.50;;;;;;4917287;54;21043;-27
2021/01/01 17:15:42;;;;;;;115.53;93.00;;;19.80;46.40;;;;;;4844353;54;21136;-27
2021/01/01 17:20:43;;;;;;;116.28;95.35;;;19.80;46.60;;;;;;4821841;54;21027;-32
2021/01/01 17:25:44;;;;;;;122.72;96.78;;;19.80;46.40;;;;;;4826903;54;20987;-20
2021/01/01 17:30:45;;;;;;;121.32;99.15;;;19.80;46.50;;;;;;4818989;54;21493;-27
2021/01/01 17:35:46;;;;;;;121.80;96.82;;;19.80;46.40;;;;;;4802021;54;21115;-26
2021/01/01 17:40:47;;;;;;;119.95;97.03;;;19.80;46.40;;;;;;4855869;54;21054;-25
2021/01/01 17:45:48;;;;;;;117.05;94.60;;;19.80;46.40;;;;;;4826595;54;21169;-29
2021/01/01 17:50:49;;;;;;;119.30;97.28;;;19.80;46.40;;;;;;4829189;54;21534;-23
2021/01/01 17:55:50;;;;;;;125.62;99.60;;;19.80;46.40;;;;;;4846365;54;20999;-25
2021/01/01 18:00:52;;;;;;;122.25;98.47;;;19.80;46.30;;;;;;4795035;58;21043;-30
2021/01/01 18:05:56;;;;;;;123.07;99.22;;;19.80;46.40;;;;;;4801326;54;21075;-27
2021/01/01 18:10:57;;;;;;;120.30;94.68;;;19.80;46.30;;;;;;4847279;54;21102;-25
2021/01/01 18:15:58;;;;;;;122.15;97.95;;;19.80;46.50;;;;;;4795759;54;21469;-27
2021/01/01 18:21:00;;;;;;;124.57;100.10;;;19.80;46.30;;;;;;4796706;54;21065;-28
2021/01/01 18:26:04;;;;;;;124.55;99.22;;;19.80;46.40;;;;;;4796215;54;21031;-28
2021/01/01 18:31:08;;;;;;;121.85;99.55;;;19.80;46.30;;;;;;4816461;54;21011;-21
2021/01/01 18:36:19;;;;;;;125.30;100.95;;;19.80;46.40;;;;;;4844693;54;21019;-24
2021/01/01 18:41:21;;;;;;;126.50;102.50;;;19.80;46.30;;;;;;4820713;54;21011;-25
2021/01/01 18:46:26;;;;;;;125.55;99.97;;;19.80;46.30;;;;;;4824669;54;21533;-26
2021/01/01 18:51:27;;;;;;;127.15;103.70;;;19.80;46.30;;;;;;4865869;54;22008;-26
2021/01/01 18:56:34;;;;;;;122.00;98.62;;;19.80;46.20;;;;;;4859334;54;21318;-27
2021/01/01 19:01:44;;;;;;;128.85;100.90;;;19.80;46.20;;;;;;4798105;54;21123;-25
2021/01/01 19:07:04;;;;;;;129.48;102.47;;;19.80;46.10;;;;;;4816357;54;21027;-26
2021/01/01 19:12:07;;;;;;;127.87;102.93;;;19.80;46.20;;;;;;4807033;54;21074;-31
2021/01/01 19:17:16;;;;;;;127.07;102.05;;;19.80;46.20;;;;;;4794808;58;20979;-27
2021/01/01 19:22:31;;;;;;;126.85;101.57;;;19.80;46.10;;;;;;4815084;54;21043;-21
2021/01/01 19:27:49;;;;;;;129.98;101.78;;;19.80;46.20;;;;;;4849434;54;21107;-30
2021/01/01 19:35:27;;;;;;;;;;;19.80;46.20;;;;;;4851627;54;21501;-27
2021/01/01 19:40:57;;;;;;;132.85;104.75;;;19.80;46.10;;;;;;4825323;54;20138;-34
2021/01/01 19:46:39;;;;;;;128.20;101.87;;;19.80;46.10;;;;;;4802565;54;21067;-29
2021/01/01 19:55:06;;;;;;;123.28;99.47;;;19.80;46.10;;;;;;4822958;54;21043;-30
2021/01/01 20:00:15;;;;;;;131.30;106.40;;;19.80;46.10;;;;;;4803324;54;21469;-24
2021/01/01 20:05:20;;;;;;;130.20;105.07;;;19.80;45.90;;;;;;4829104;54;21047;-21
2021/01/01 20:10:24;;;;;;;130.73;105.45;;;19.70;45.90;;;;;;4820981;54;21047;-25
2021/01/01 20:15:27;;;;;;;128.43;102.82;;;19.80;45.90;;;;;;4816809;54;21063;-25
2021/01/01 20:20:30;;;;;;;125.85;100.72;;;19.80;45.90;;;;;;4820614;54;21106;-30
2021/01/01 20:25:32;;;;;;;127.87;103.05;;;19.80;45.90;;;;;;4849132;54;21090;-28
2021/01/01 20:30:33;;;;;;;129.35;103.87;;;19.80;45.80;;;;;;4830576;54;21620;-23
2021/01/01 20:35:48;;;;;;;127.03;100.70;;;19.80;45.70;;;;;;4837630;54;21019;-24
2021/01/01 20:41:57;;;;;;;126.28;101.97;;;19.80;45.80;;;;;;4843736;54;22051;-26
2021/01/01 20:54:59;;;;;;;124.70;99.97;;;19.70;45.70;;;;;;4795378;54;21043;-26
2021/01/01 21:00:08;;;;;;;128.95;101.90;;;19.70;45.70;;;;;;4822241;54;21505;-22
2021/01/01 21:05:12;;;;;;;127.50;102.35;;;19.70;45.70;;;;;;4809872;54;21102;-25
2021/01/01 21:12:03;;;;;;;127.62;103.53;;;19.70;45.70;;;;;;4803260;54;21031;-22
2021/01/01 21:17:26;;;;;;;128.55;102.50;;;19.70;45.70;;;;;;4821647;54;21541;-29
2021/01/01 21:25:29;;;;;;;123.22;99.35;;;19.70;45.60;;;;;;4797243;54;21047;-29
2021/01/01 21:32:23;;;;;;;125.20;100.25;;;19.80;45.60;;;;;;4809265;54;20987;-25
2021/01/01 21:40:14;;;;;;;123.50;99.43;;;19.70;45.60;;;;;;4827435;54;21011;-24
2021/01/01 21:45:28;;;;;;;129.38;102.70;;;19.70;45.50;;;;;;4803694;54;21055;-24
2021/01/01 21:50:32;;;;;;;124.07;99.82;;;19.70;45.50;;;;;;4794851;58;22644;-24
2021/01/01 21:55:37;;;;;;;124.00;98.95;;;19.70;45.60;;;;;;4825682;54;21051;-29
2021/01/01 22:00:37;;;;;;;126.15;100.50;;;19.70;45.60;;;;;;4808931;54;21038;-26
2021/01/01 22:05:39;;;;;;;122.78;97.80;;;19.70;45.50;;;;;;4796312;58;21000;-26
2021/01/01 22:10:40;;;;;;;124.10;97.55;;;19.70;45.50;;;;;;4826876;54;21497;-26
2021/01/01 22:15:41;;;;;;;128.40;103.53;;;19.80;45.60;;;;;;4795085;54;21014;-27
2021/01/01 22:20:42;;;;;;;125.87;98.90;;;19.70;45.50;;;;;;4808913;54;21601;-28
2021/01/01 22:25:43;;;;;;;125.90;97.47;;;19.70;46.20;;;;;;4806574;54;21126;-28
2021/01/01 22:30:43;;;;;;;125.25;97.78;;;19.80;45.50;;;;;;4808392;54;21064;-24
2021/01/01 22:35:44;;;;;;;120.85;97.55;;;19.70;45.40;;;;;;4794369;58;21043;-25
2021/01/01 22:40:45;;;;;;;124.15;98.90;;;19.70;45.30;;;;;;4807640;54;20991;-25
2021/01/01 22:45:46;;;;;;;124.93;97.85;;;19.70;45.50;;;;;;4855188;54;22614;-24
2021/01/01 22:50:47;;;;;;;119.68;96.22;;;19.80;45.40;;;;;;4796663;54;21071;-28
2021/01/01 22:55:51;;;;;;;121.40;95.62;;;19.70;45.40;;;;;;4805436;54;21027;-29
2021/01/01 23:00:53;;;;;;;116.07;93.57;;;19.80;45.40;;;;;;4799852;54;21011;-32
2021/01/01 23:05:57;;;;;;;119.20;95.47;;;19.70;45.20;;;;;;4796884;54;20995;-22
2021/01/01 23:10:58;;;;;;;117.53;94.78;;;19.70;45.30;;;;;;4804625;54;21545;-29
2021/01/01 23:16:01;;;;;;;118.53;94.15;;;19.70;45.30;;;;;;4805202;54;21604;-31
2021/01/01 23:21:06;;;;;;;117.00;92.57;;;19.70;45.30;;;;;;4794790;58;21122;-28
2021/01/01 23:26:13;;;;;;;118.37;94.35;;;19.70;45.20;;;;;;4815391;54;21003;-27
2021/01/01 23:32:26;;;;;;;118.30;91.30;;;19.70;45.20;;;;;;4800649;54;21054;-20
2021/01/01 23:41:19;;;;;;;114.12;92.28;;;19.70;45.20;;;;;;4802364;54;21149;-23
2021/01/01 23:46:26;;;;;;;115.12;92.55;;;19.80;45.20;;;;;;4797292;54;21949;-26
2021/01/01 23:51:28;;;;;;;116.07;89.60;;;19.70;45.10;;;;;;4802834;54;21015;-28
2021/01/01 23:56:31;;;;;;;109.03;87.57;;;19.70;45.10;;;;;;4795434;55;21117;-21
